Time;durP1;ratioP1;P1;durP2;ratioP2;P2;SDS_P1;SDS_P2;PMS_P1;PMS_P2;Temp;Humidity;BMP_temperature;BMP_pressure;BME280_temperature;BME280_humidity;BME280_pressure;Samples;Min_cycle;Max_cycle;Signal;HPM_P1;HPM_P2
2022/11/13 00:02:21;;;;;;;2.80;1.30;;;;;;;9.82;99.31;100853.09;5109942;28;20194;-63
2022/11/13 00:04:48;;;;;;;1.20;1.10;;;;;;;9.78;99.35;100846.47;5110233;28;20237;-59
2022/11/13 00:07:15;;;;;;;0.90;0.90;;;;;;;9.71;99.37;100851.78;5110281;28;20190;-63
2022/11/13 00:09:41;;;;;;;1.60;1.50;;;;;;;9.58;99.38;100845.53;5112390;28;20285;-59
2022/11/13 00:12:08;;;;;;;1.80;1.67;;;;;;;9.44;99.96;100848.63;5114121;28;20256;-58
2022/11/13 00:14:36;;;;;;;1.30;1.00;;;;;;;9.39;100.00;100844.56;5114371;28;20258;-63
2022/11/13 00:17:03;;;;;;;2.80;1.37;;;;;;;9.40;100.00;100841.16;5114020;28;20201;-59
2022/11/13 00:19:30;;;;;;;1.13;1.07;;;;;;;9.35;100.00;100846.44;5114057;28;20221;-61
2022/11/13 00:21:58;;;;;;;3.30;1.77;;;;;;;9.19;100.00;100838.53;5114048;28;20193;-63
2022/11/13 00:24:25;;;;;;;2.43;1.40;;;;;;;9.04;100.00;100834.00;5114221;28;20213;-58
2022/11/13 00:26:52;;;;;;;4.03;2.17;;;;;;;9.07;100.00;100831.34;5114015;28;20661;-59
2022/11/13 00:29:19;;;;;;;1.50;1.40;;;;;;;9.06;100.00;100834.78;5113857;28;20251;-58
2022/11/13 00:31:47;;;;;;;1.43;1.30;;;;;;;9.04;100.00;100828.91;5113774;28;20205;-63
2022/11/13 00:34:14;;;;;;;1.10;0.97;;;;;;;9.02;100.00;100828.16;5113879;28;20221;-63
2022/11/13 00:36:41;;;;;;;1.43;1.27;;;;;;;8.99;100.00;100823.16;5114182;28;20198;-59
2022/11/13 00:39:08;;;;;;;1.83;1.17;;;;;;;8.84;100.00;100825.41;5113823;27;20221;-59
2022/11/13 00:41:35;;;;;;;1.57;1.10;;;;;;;8.68;100.00;100826.00;5113527;28;20197;-63
2022/11/13 00:44:02;;;;;;;1.90;1.27;;;;;;;8.51;100.00;100829.16;5113444;27;20713;-59
2022/11/13 00:46:29;;;;;;;1.97;1.53;;;;;;;8.43;100.00;100820.94;5113600;28;20291;-58
2022/11/13 00:48:58;;;;;;;1.37;0.90;;;;;;;8.30;100.00;100823.91;5113379;27;20231;-63
2022/11/13 00:51:24;;;;;;;1.97;1.37;;;;;;;8.30;100.00;100823.91;5113406;28;20209;-59
2022/11/13 00:53:51;;;;;;;2.33;1.90;;;;;;;8.32;100.00;100824.69;5113240;28;20209;-59
2022/11/13 00:56:18;;;;;;;1.33;0.90;;;;;;;8.34;100.00;100832.28;5113217;28;20201;-63
2022/11/13 00:58:45;;;;;;;2.17;1.57;;;;;;;8.34;100.00;100830.53;5113304;28;20258;-63
2022/11/13 01:01:14;;;;;;;2.67;2.10;;;;;;;8.38;100.00;100834.69;5113553;28;20210;-59
2022/11/13 01:03:41;;;;;;;1.23;1.07;;;;;;;8.45;100.00;100837.03;5113043;28;20204;-63
2022/11/13 01:06:16;;;;;;;1.40;0.93;;;;;;;8.50;100.00;100837.72;5113331;28;20197;-58
2022/11/13 01:08:42;;;;;;;2.63;1.90;;;;;;;8.52;100.00;100835.91;5113340;28;20572;-58
2022/11/13 01:11:12;;;;;;;0.97;0.97;;;;;;;8.59;100.00;100837.38;5113170;28;20201;-59
2022/11/13 01:13:39;;;;;;;1.40;1.23;;;;;;;8.66;100.00;100832.88;5113149;28;20201;-63
2022/11/13 01:16:07;;;;;;;0.77;0.77;;;;;;;8.71;100.00;100831.81;5112832;28;20201;-63
2022/11/13 01:18:35;;;;;;;1.53;1.43;;;;;;;8.76;100.00;100831.66;5112851;28;20208;-59
2022/11/13 01:21:06;;;;;;;1.23;1.13;;;;;;;8.82;100.00;100829.72;5112217;28;20225;-63
2022/11/13 01:23:35;;;;;;;0.97;0.97;;;;;;;8.82;100.00;100829.72;5112686;27;20405;-63
2022/11/13 01:26:07;;;;;;;2.27;1.87;;;;;;;8.86;100.00;100830.44;5112710;28;20213;-58
2022/11/13 01:28:34;;;;;;;1.27;1.10;;;;;;;8.96;100.00;100820.69;5112598;28;20228;-58
2022/11/13 01:31:03;;;;;;;2.80;1.50;;;;;;;9.01;100.00;100823.91;5112771;28;20661;-58
2022/11/13 01:33:30;;;;;;;1.43;1.33;;;;;;;9.00;100.00;100825.66;5112613;28;20202;-63
2022/11/13 01:36:01;;;;;;;0.67;0.67;;;;;;;9.03;100.00;100822.16;5112764;28;20654;-63
2022/11/13 01:38:28;;;;;;;2.13;1.93;;;;;;;9.09;100.00;100821.09;5112588;28;20236;-58
2022/11/13 01:40:56;;;;;;;0.90;0.90;;;;;;;9.14;100.00;100812.38;5112251;28;20665;-63
2022/11/13 01:43:25;;;;;;;1.67;1.57;;;;;;;9.05;100.00;100815.28;5112352;28;20208;-63
2022/11/13 01:46:13;;;;;;;1.30;1.20;;;;;;;9.14;100.00;100814.09;5112407;28;20213;-58
2022/11/13 01:48:42;;;;;;;2.43;1.90;;;;;;;9.17;100.00;100814.78;5112238;28;20233;-59
2022/11/13 01:51:12;;;;;;;4.00;2.23;;;;;;;9.17;100.00;100819.06;5112413;28;20197;-58
2022/11/13 01:53:43;;;;;;;1.63;1.07;;;;;;;9.22;100.00;100812.03;5112249;28;20193;-63
2022/11/13 01:56:12;;;;;;;1.60;1.37;;;;;;;9.19;100.00;100813.03;5112322;27;20200;-63
2022/11/13 01:58:40;;;;;;;2.07;1.40;;;;;;;9.24;100.00;100807.72;5112204;28;20205;-58
2022/11/13 02:01:07;;;;;;;1.17;1.07;;;;;;;9.21;100.00;100808.66;5112345;28;20197;-60
2022/11/13 02:03:34;;;;;;;3.17;2.50;;;;;;;9.15;100.00;100800.44;5112153;28;20197;-59
2022/11/13 02:06:01;;;;;;;2.17;1.73;;;;;;;8.97;100.00;100797.69;5111862;28;20232;-58
2022/11/13 02:08:28;;;;;;;1.97;1.87;;;;;;;8.87;100.00;100805.75;5111835;28;20201;-58
2022/11/13 02:10:56;;;;;;;4.47;2.57;;;;;;;8.81;100.00;100807.66;5111650;28;20229;-58
2022/11/13 02:13:25;;;;;;;3.77;2.47;;;;;;;8.75;100.00;100802.75;5111661;28;20665;-63
2022/11/13 02:15:53;;;;;;;2.70;2.43;;;;;;;8.77;100.00;100808.66;5111707;28;20763;-58
2022/11/13 02:18:22;;;;;;;2.50;2.10;;;;;;;8.68;100.00;100809.00;5111482;28;20197;-63
2022/11/13 02:20:56;;;;;;;5.07;3.00;;;;;;;8.72;100.00;100807.97;5111583;28;20228;-63
2022/11/13 02:23:30;;;;;;;4.47;2.57;;;;;;;8.65;100.00;100809.09;5111632;28;20493;-58
2022/11/13 02:25:59;;;;;;;5.27;2.23;;;;;;;8.62;100.00;100811.75;5111367;28;20789;-63
2022/11/13 02:28:26;;;;;;;3.03;2.33;;;;;;;8.54;100.00;100808.66;5111384;28;20201;-63
2022/11/13 02:30:52;;;;;;;2.63;2.17;;;;;;;8.31;100.00;100800.06;5111135;28;20289;-63
2022/11/13 02:33:25;;;;;;;4.20;2.83;;;;;;;8.31;100.00;100797.53;5110570;28;20201;-63
2022/11/13 02:35:52;;;;;;;2.07;1.97;;;;;;;8.27;100.00;100801.09;5111292;28;20221;-59
2022/11/13 02:38:19;;;;;;;3.20;1.70;;;;;;;8.25;100.00;100797.75;5110920;28;20250;-58
2022/11/13 02:40:46;;;;;;;2.53;2.10;;;;;;;8.28;100.00;100801.91;5111433;28;20658;-63
2022/11/13 02:43:14;;;;;;;1.10;1.00;;;;;;;8.09;100.00;100801.72;5111312;28;20216;-63
2022/11/13 02:45:41;;;;;;;2.77;2.03;;;;;;;8.08;100.00;100795.78;5111010;28;20282;-63
2022/11/13 02:48:08;;;;;;;4.53;1.27;;;;;;;8.02;100.00;100806.19;5111162;28;20197;-58
2022/11/13 02:50:36;;;;;;;1.70;1.43;;;;;;;8.11;100.00;100799.94;5110662;28;20233;-63
2022/11/13 02:53:04;;;;;;;1.93;1.63;;;;;;;8.13;100.00;100798.19;5110837;28;20258;-58
2022/11/13 02:55:30;;;;;;;3.50;2.53;;;;;;;8.04;100.00;100804.44;5111008;28;20693;-63
2022/11/13 02:57:57;;;;;;;3.07;2.27;;;;;;;8.02;100.00;100797.72;5110999;28;20234;-58
2022/11/13 03:00:25;;;;;;;2.33;2.13;;;;;;;7.87;100.00;100802.44;5111108;28;20732;-58
2022/11/13 03:02:52;;;;;;;2.47;1.97;;;;;;;7.84;100.00;100807.63;5110636;28;20208;-58
2022/11/13 03:05:19;;;;;;;1.43;1.33;;;;;;;7.80;100.00;100806.09;5110779;28;20236;-63
2022/11/13 03:07:46;;;;;;;1.53;1.10;;;;;;;7.80;100.00;100803.53;5110621;28;20200;-58
2022/11/13 03:10:13;;;;;;;2.40;2.20;;;;;;;7.78;100.00;100805.31;5110662;28;20298;-63
2022/11/13 03:12:40;;;;;;;1.83;1.63;;;;;;;7.78;100.00;100810.38;5110664;28;20225;-58
2022/11/13 03:15:09;;;;;;;2.13;2.00;;;;;;;7.76;100.00;100804.50;5111031;28;20217;-60
2022/11/13 03:17:37;;;;;;;1.43;1.33;;;;;;;7.81;100.00;100805.19;5110611;28;20197;-58
2022/11/13 03:20:05;;;;;;;1.27;1.17;;;;;;;7.70;100.00;100805.53;5110553;28;20228;-58
2022/11/13 03:22:32;;;;;;;1.60;1.47;;;;;;;7.73;100.00;100824.97;5110279;28;20193;-63
2022/11/13 03:24:59;;;;;;;1.67;1.53;;;;;;;7.64;100.00;100820.19;5110317;28;20725;-58
2022/11/13 03:27:26;;;;;;;1.53;1.43;;;;;;;7.72;100.00;100818.22;5110345;28;20201;-58
2022/11/13 03:29:52;;;;;;;2.77;2.50;;;;;;;7.86;100.00;100821.16;5110478;28;20229;-58
2022/11/13 03:32:19;;;;;;;1.73;1.63;;;;;;;7.85;100.00;100819.50;5110339;28;20208;-63
2022/11/13 03:34:47;;;;;;;2.13;1.90;;;;;;;7.97;100.00;100823.34;5110357;28;20217;-58
2022/11/13 03:37:14;;;;;;;1.33;1.23;;;;;;;8.05;100.00;100825.63;5110272;28;20197;-63
2022/11/13 03:39:41;;;;;;;2.03;1.70;;;;;;;8.05;100.00;100820.53;5110401;28;20221;-63
2022/11/13 03:42:08;;;;;;;1.37;1.30;;;;;;;8.07;100.00;100814.50;5110057;28;20695;-63
2022/11/13 03:44:35;;;;;;;3.23;2.03;;;;;;;8.11;100.00;100815.22;5109730;28;20661;-58
2022/11/13 03:47:01;;;;;;;2.07;1.47;;;;;;;8.08;100.00;100811.06;5110084;28;20765;-63
2022/11/13 03:49:28;;;;;;;1.27;1.17;;;;;;;8.06;100.00;100812.84;5110325;28;20256;-58
2022/11/13 03:51:56;;;;;;;1.70;1.47;;;;;;;7.97;100.00;100818.25;5109937;28;20201;-63
2022/11/13 03:54:23;;;;;;;1.57;1.20;;;;;;;8.02;100.00;100820.63;5110109;28;20217;-58
2022/11/13 03:56:50;;;;;;;2.13;1.97;;;;;;;8.16;100.00;100813.34;5109909;28;20761;-63
2022/11/13 03:59:17;;;;;;;1.17;1.07;;;;;;;8.16;100.00;100810.81;5110172;28;20600;-58
2022/11/13 04:01:43;;;;;;;1.93;1.67;;;;;;;8.23;100.00;100802.09;5109982;28;20212;-58
2022/11/13 04:04:10;;;;;;;1.97;1.43;;;;;;;8.28;100.00;100807.84;5109968;28;20224;-63
2022/11/13 04:06:37;;;;;;;3.33;2.40;;;;;;;8.34;100.00;100804.22;5109867;28;20205;-58
2022/11/13 04:09:05;;;;;;;1.50;1.40;;;;;;;8.44;100.00;100809.88;5109862;28;20528;-58
2022/11/13 04:11:32;;;;;;;2.80;2.23;;;;;;;8.52;100.00;100805.31;5110191;28;20598;-58
2022/11/13 04:13:59;;;;;;;1.77;1.67;;;;;;;8.52;100.00;100800.22;5109741;28;20738;-58
2022/11/13 04:16:26;;;;;;;1.87;1.47;;;;;;;8.54;100.00;100790.81;5109868;28;20228;-63
2022/11/13 04:18:52;;;;;;;1.20;1.10;;;;;;;8.61;100.00;100805.00;5109711;28;20193;-63
2022/11/13 04:21:19;;;;;;;2.10;1.30;;;;;;;8.43;100.00;100800.56;5109842;28;20208;-63
2022/11/13 04:23:46;;;;;;;1.43;1.20;;;;;;;8.41;100.00;100802.31;5109760;28;20194;-58
2022/11/13 04:26:14;;;;;;;3.00;2.10;;;;;;;8.29;100.00;100796.78;5109970;28;20193;-63
2022/11/13 04:28:41;;;;;;;1.97;1.80;;;;;;;8.29;100.00;100794.22;5109728;28;20204;-63
2022/11/13 04:31:08;;;;;;;1.57;1.23;;;;;;;8.16;100.00;100795.53;5109663;28;20225;-63
2022/11/13 04:33:35;;;;;;;1.43;1.33;;;;;;;8.06;100.00;100792.47;5109731;28;20705;-63
2022/11/13 04:36:02;;;;;;;1.90;1.30;;;;;;;8.08;100.00;100790.69;5109668;28;20217;-63
2022/11/13 04:38:28;;;;;;;2.37;1.70;;;;;;;8.06;100.00;100786.56;5109780;28;20261;-63
2022/11/13 04:43:37;;;;;;;3.00;2.13;;;;;;;7.99;100.00;100790.19;5109322;28;20185;-63
2022/11/13 04:46:04;;;;;;;2.00;1.90;;;;;;;8.03;100.00;100784.94;5109442;28;20637;-63
2022/11/13 04:48:31;;;;;;;1.53;1.07;;;;;;;8.01;100.00;100788.41;5109691;28;20209;-58
2022/11/13 04:50:58;;;;;;;1.40;0.83;;;;;;;7.93;100.00;100797.13;5109601;28;20225;-63
2022/11/13 04:53:25;;;;;;;3.07;1.57;;;;;;;8.06;100.00;100786.56;5109344;28;20677;-58
2022/11/13 04:55:52;;;;;;;1.80;1.27;;;;;;;8.07;100.00;100788.22;5110189;28;20299;-58
2022/11/13 04:58:19;;;;;;;1.70;1.53;;;;;;;8.11;100.00;100790.56;5113087;28;20219;-63
2022/11/13 05:00:47;;;;;;;2.20;2.07;;;;;;;8.14;100.00;100794.75;5113119;27;20266;-63
2022/11/13 05:03:14;;;;;;;0.97;0.80;;;;;;;8.09;100.00;100792.38;5113439;28;20201;-63
2022/11/13 05:05:41;;;;;;;1.63;1.23;;;;;;;8.10;100.00;100790.66;5112983;28;20245;-58
2022/11/13 05:08:07;;;;;;;3.17;1.87;;;;;;;8.04;100.00;100798.50;5112983;28;20708;-58
2022/11/13 05:10:34;;;;;;;0.93;0.93;;;;;;;8.09;100.00;100794.09;5113118;28;20241;-59
2022/11/13 05:13:01;;;;;;;1.20;1.10;;;;;;;8.05;100.00;100784.88;5113229;28;20202;-63
2022/11/13 05:15:28;;;;;;;2.20;1.93;;;;;;;8.03;100.00;100786.63;5113440;28;20217;-63
2022/11/13 05:17:56;;;;;;;0.93;0.93;;;;;;;7.99;100.00;100782.53;5112842;28;20681;-63
2022/11/13 05:20:23;;;;;;;2.47;2.07;;;;;;;7.99;100.00;100785.09;5112763;28;20236;-58
2022/11/13 05:22:49;;;;;;;0.93;0.80;;;;;;;8.02;100.00;100785.81;5112559;28;20686;-58
2022/11/13 05:25:16;;;;;;;1.97;1.23;;;;;;;8.06;100.00;100781.47;5112737;28;20286;-58
2022/11/13 05:27:43;;;;;;;0.97;0.97;;;;;;;8.09;100.00;100776.25;5112663;28;20196;-63
2022/11/13 05:30:10;;;;;;;3.60;2.30;;;;;;;8.11;100.00;100777.00;5112993;28;20236;-61
2022/11/13 05:32:37;;;;;;;2.03;1.73;;;;;;;8.12;100.00;100786.34;5112577;28;20205;-59
2022/11/13 05:35:06;;;;;;;1.70;1.60;;;;;;;8.13;100.00;100782.91;5112477;28;20225;-63
2022/11/13 05:37:32;;;;;;;2.40;1.37;;;;;;;7.98;100.00;100778.34;5112657;28;20197;-63
2022/11/13 05:39:59;;;;;;;1.30;1.20;;;;;;;7.94;100.00;100778.44;5112568;28;20286;-58
2022/11/13 05:42:26;;;;;;;1.57;1.47;;;;;;;7.98;100.00;100791.91;5112378;28;20197;-59
2022/11/13 05:44:53;;;;;;;2.73;1.03;;;;;;;8.04;100.00;100799.31;5112167;28;20780;-58
2022/11/13 05:47:19;;;;;;;1.63;0.93;;;;;;;8.09;100.00;100791.53;5112241;28;20212;-63
2022/11/13 05:49:46;;;;;;;0.93;0.90;;;;;;;8.19;100.00;100797.97;5111997;27;20237;-58
2022/11/13 05:52:14;;;;;;;1.57;1.47;;;;;;;8.34;100.00;100797.41;5112271;28;20204;-63
2022/11/13 05:54:41;;;;;;;1.17;0.77;;;;;;;8.37;100.00;100806.69;5112306;28;20217;-63
2022/11/13 05:57:08;;;;;;;0.60;0.60;;;;;;;8.48;100.00;100806.34;5111947;28;20205;-63
2022/11/13 05:59:35;;;;;;;1.10;1.00;;;;;;;8.56;100.00;100807.72;5112395;28;20225;-58
2022/11/13 06:02:02;;;;;;;1.13;1.03;;;;;;;8.61;100.00;100812.66;5112235;28;20205;-59
2022/11/13 06:04:28;;;;;;;1.33;1.10;;;;;;;8.68;100.00;100813.25;5111899;28;20221;-58
2022/11/13 06:06:55;;;;;;;1.00;1.00;;;;;;;8.81;100.00;100812.75;5111630;28;20898;-63
2022/11/13 06:09:23;;;;;;;1.00;1.00;;;;;;;8.89;100.00;100804.81;5111821;28;20225;-63
2022/11/13 06:11:50;;;;;;;1.60;1.50;;;;;;;8.90;100.00;100810.72;5111586;28;20705;-58
2022/11/13 06:14:17;;;;;;;1.23;1.13;;;;;;;8.96;100.00;100815.59;5111634;28;20224;-64
2022/11/13 06:16:44;;;;;;;3.90;1.57;;;;;;;9.08;100.00;100815.16;5111786;27;20197;-58
2022/11/13 06:19:11;;;;;;;5.03;1.90;;;;;;;9.16;100.00;100808.03;5111833;28;20301;-64
2022/11/13 06:21:39;;;;;;;5.67;1.63;;;;;;;9.27;100.00;100816.09;5111545;28;20212;-58
2022/11/13 06:24:07;;;;;;;1.33;1.30;;;;;;;9.30;100.00;100810.84;5111585;28;20217;-58
2022/11/13 06:26:36;;;;;;;1.63;1.53;;;;;;;9.35;100.00;100818.34;5111403;28;20219;-64
2022/11/13 06:29:05;;;;;;;0.57;0.57;;;;;;;9.46;100.00;100817.94;5111232;28;20240;-64
2022/11/13 06:31:34;;;;;;;1.27;1.17;;;;;;;9.70;100.00;100806.72;5111427;28;20239;-64
2022/11/13 06:34:02;;;;;;;2.37;1.30;;;;;;;9.97;100.00;100806.47;5111347;28;20220;-63
2022/11/13 06:36:30;;;;;;;0.93;0.83;;;;;;;10.15;99.57;100813.38;5111386;28;20665;-58
2022/11/13 06:38:58;;;;;;;1.43;1.33;;;;;;;10.49;98.67;100823.88;5111103;28;20201;-64
2022/11/13 06:41:28;;;;;;;2.00;1.40;;;;;;;10.82;96.83;100826.63;5111125;28;20201;-64
2022/11/13 06:43:57;;;;;;;3.17;1.83;;;;;;;11.15;95.56;100824.28;5110998;28;20202;-59
2022/11/13 06:46:26;;;;;;;3.93;1.47;;;;;;;11.44;92.80;100825.47;5111221;28;20204;-59
2022/11/13 06:48:53;;;;;;;2.37;1.00;;;;;;;11.59;92.05;100830.75;5110691;28;20451;-63
2022/11/13 06:51:21;;;;;;;1.33;1.20;;;;;;;11.92;91.00;100831.66;5111011;28;20601;-58
2022/11/13 06:53:49;;;;;;;2.70;1.60;;;;;;;12.20;88.54;100831.13;5111036;28;20277;-59
2022/11/13 06:56:17;;;;;;;3.80;1.87;;;;;;;12.37;88.71;100825.13;5110905;28;20270;-59
2022/11/13 06:58:44;;;;;;;2.00;1.40;;;;;;;12.53;86.71;100824.31;5111199;28;20201;-59
2022/11/13 07:01:14;;;;;;;4.13;1.70;;;;;;;12.34;86.48;100822.72;5110980;28;20205;-64
2022/11/13 07:03:41;;;;;;;3.43;2.00;;;;;;;12.56;86.29;100826.72;5110862;28;20205;-63
2022/11/13 07:06:12;;;;;;;2.17;1.97;;;;;;;12.60;85.43;100823.09;5110925;27;20208;-64
2022/11/13 07:08:39;;;;;;;2.07;1.50;;;;;;;12.66;84.84;100822.78;5110936;27;20207;-64
2022/11/13 07:11:07;;;;;;;3.60;1.90;;;;;;;12.49;85.63;100823.66;5110582;28;20277;-58
2022/11/13 07:13:34;;;;;;;1.63;1.00;;;;;;;12.66;85.09;100817.63;5110800;28;20295;-59
2022/11/13 07:16:02;;;;;;;1.93;1.63;;;;;;;12.73;84.73;100813.00;5110957;28;20232;-64
2022/11/13 07:18:31;;;;;;;1.50;1.23;;;;;;;12.79;84.00;100813.50;5110086;28;20296;-59
2022/11/13 07:20:59;;;;;;;1.70;1.27;;;;;;;12.60;85.39;100815.41;5110691;28;20240;-59
2022/11/13 07:23:25;;;;;;;2.07;1.57;;;;;;;12.61;83.52;100804.22;5110702;28;20674;-64
2022/11/13 07:25:54;;;;;;;8.20;2.83;;;;;;;12.23;85.45;100809.63;5110664;28;20221;-63
2022/11/13 07:28:21;;;;;;;1.17;1.13;;;;;;;12.51;85.10;100797.91;5110359;28;20302;-64
2022/11/13 07:30:47;;;;;;;1.80;1.10;;;;;;;12.80;84.88;100794.63;5110429;28;20733;-64
2022/11/13 07:33:14;;;;;;;3.30;1.87;;;;;;;13.16;83.31;100800.41;5111054;28;20193;-59
2022/11/13 07:35:43;;;;;;;1.00;0.90;;;;;;;13.59;81.98;100801.41;5110922;28;20224;-64
2022/11/13 07:38:10;;;;;;;1.43;1.33;;;;;;;13.03;81.87;100802.78;5110676;28;20198;-64
2022/11/13 07:40:37;;;;;;;1.87;1.60;;;;;;;12.95;82.94;100802.41;5110317;28;20655;-64
2022/11/13 07:43:03;;;;;;;1.73;1.40;;;;;;;13.53;83.49;100804.34;5110243;28;20201;-59
2022/11/13 07:45:30;;;;;;;1.90;1.70;;;;;;;13.95;80.75;100800.19;5110288;28;20219;-64
2022/11/13 07:47:58;;;;;;;2.00;1.30;;;;;;;14.49;78.23;100800.38;5110439;28;20199;-59
2022/11/13 07:50:25;;;;;;;1.47;1.23;;;;;;;14.27;76.48;100795.69;5110078;28;20230;-59
2022/11/13 07:52:57;;;;;;;2.17;1.77;;;;;;;13.79;79.40;100801.09;5110383;28;20190;-64
2022/11/13 07:55:24;;;;;;;1.47;1.13;;;;;;;14.37;77.52;100806.25;5110211;28;20219;-61
2022/11/13 07:57:50;;;;;;;2.00;1.33;;;;;;;14.14;77.51;100800.75;5109923;28;20232;-65
2022/11/13 08:00:18;;;;;;;2.33;1.27;;;;;;;14.38;76.44;100801.00;5110234;28;20281;-64
2022/11/13 08:02:46;;;;;;;2.67;1.27;;;;;;;14.09;76.98;100796.78;5110105;28;20622;-64
2022/11/13 08:05:13;;;;;;;1.20;1.07;;;;;;;14.11;76.76;100793.22;5110203;28;20233;-59
2022/11/13 08:07:40;;;;;;;2.37;1.53;;;;;;;14.65;76.06;100795.94;5109965;28;20679;-59
2022/11/13 08:10:09;;;;;;;1.47;1.27;;;;;;;14.07;75.96;100794.31;5110226;28;20721;-64
2022/11/13 08:12:36;;;;;;;3.63;1.87;;;;;;;13.80;77.38;100791.63;5110056;28;20202;-64
2022/11/13 08:15:03;;;;;;;2.73;1.63;;;;;;;13.53;79.25;100788.91;5109927;28;20664;-59
2022/11/13 08:17:30;;;;;;;1.47;1.20;;;;;;;13.59;79.50;100798.84;5110109;28;20638;-64
2022/11/13 08:19:57;;;;;;;1.90;1.40;;;;;;;13.23;80.82;100791.41;5110200;28;20727;-64
2022/11/13 08:22:24;;;;;;;2.27;1.47;;;;;;;13.35;79.89;100790.75;5110014;28;20223;-64
2022/11/13 08:24:52;;;;;;;1.40;1.27;;;;;;;13.72;78.35;100792.06;5109642;28;20225;-65
2022/11/13 08:27:20;;;;;;;1.63;1.27;;;;;;;13.06;80.18;100800.06;5109868;28;20207;-59
2022/11/13 08:29:48;;;;;;;2.10;1.47;;;;;;;12.87;81.97;100785.69;5109936;28;20225;-59
2022/11/13 08:32:14;;;;;;;1.50;1.40;;;;;;;12.44;83.47;100782.00;5113172;28;20233;-62
2022/11/13 08:34:41;;;;;;;2.57;1.30;;;;;;;12.45;83.29;100784.50;5114006;28;20220;-64
2022/11/13 08:37:08;;;;;;;2.10;1.67;;;;;;;12.54;84.38;100787.50;5113752;28;20202;-59
2022/11/13 08:39:35;;;;;;;1.80;1.40;;;;;;;12.14;86.62;100784.44;5113908;28;20229;-64
2022/11/13 08:42:02;;;;;;;1.17;0.87;;;;;;;12.35;85.67;100788.47;5113618;28;20208;-62
2022/11/13 08:44:30;;;;;;;2.50;1.53;;;;;;;12.45;85.09;100789.66;5113792;28;20217;-64
2022/11/13 08:46:57;;;;;;;1.33;1.20;;;;;;;12.64;86.29;100786.09;5113615;28;20205;-59
2022/11/13 08:49:24;;;;;;;2.43;1.90;;;;;;;12.95;85.01;100792.16;5113491;28;20720;-59
2022/11/13 08:51:51;;;;;;;2.60;1.87;;;;;;;12.55;86.42;100789.16;5113456;28;20603;-64
2022/11/13 08:54:19;;;;;;;1.00;1.00;;;;;;;12.37;86.78;100786.66;5113561;28;20270;-64
2022/11/13 08:56:47;;;;;;;1.50;1.27;;;;;;;12.50;86.41;100786.81;5113254;28;20193;-59
2022/11/13 08:59:14;;;;;;;2.13;1.37;;;;;;;12.48;86.02;100782.69;5113341;28;20248;-59
2022/11/13 09:01:42;;;;;;;1.70;1.60;;;;;;;12.80;84.99;100783.50;5113426;28;20197;-64
2022/11/13 09:04:09;;;;;;;1.03;1.00;;;;;;;12.97;84.81;100785.16;5113438;28;20222;-59
2022/11/13 09:06:36;;;;;;;1.40;1.30;;;;;;;13.08;83.09;100785.41;5113475;28;20222;-59
2022/11/13 09:09:05;;;;;;;2.00;1.17;;;;;;;12.92;83.35;100782.88;5113541;28;20723;-64
2022/11/13 09:11:32;;;;;;;0.90;0.83;;;;;;;13.10;84.62;100778.44;5113087;28;20316;-59
2022/11/13 09:14:00;;;;;;;1.83;1.20;;;;;;;13.32;84.00;100771.25;5112997;28;20200;-64
2022/11/13 09:16:26;;;;;;;1.40;0.93;;;;;;;13.33;83.84;100767.75;5113119;28;20291;-64
2022/11/13 09:18:55;;;;;;;0.93;0.73;;;;;;;13.38;80.82;100766.63;5113073;28;20208;-64
2022/11/13 09:21:21;;;;;;;2.37;1.40;;;;;;;13.01;81.79;100753.28;5112978;28;20735;-59
2022/11/13 09:23:49;;;;;;;3.27;1.90;;;;;;;12.59;83.17;100754.72;5112845;28;20194;-64
2022/11/13 09:26:18;;;;;;;2.93;1.50;;;;;;;12.64;84.91;100752.72;5112954;28;20665;-59
2022/11/13 09:28:45;;;;;;;1.67;1.37;;;;;;;12.14;86.21;100751.13;5112891;27;20579;-64
2022/11/13 09:31:11;;;;;;;1.57;0.93;;;;;;;12.20;85.79;100746.50;5113236;27;20226;-59
2022/11/13 09:33:38;;;;;;;1.10;1.00;;;;;;;12.38;86.21;100737.00;5112522;28;20234;-64
2022/11/13 09:36:13;;;;;;;1.70;1.03;;;;;;;12.43;86.33;100737.59;5112587;28;20205;-59
2022/11/13 09:38:42;;;;;;;1.20;0.87;;;;;;;12.65;84.71;100744.13;5112636;28;20299;-59
2022/11/13 09:41:12;;;;;;;1.43;1.33;;;;;;;12.78;85.80;100734.84;5112235;28;20231;-64
2022/11/13 09:43:44;;;;;;;0.83;0.80;;;;;;;12.95;85.33;100735.66;5112291;28;20204;-59
2022/11/13 09:46:18;;;;;;;1.33;1.23;;;;;;;13.03;84.10;100723.19;5112591;28;20647;-65
2022/11/13 09:48:50;;;;;;;1.63;1.20;;;;;;;13.14;83.19;100726.00;5111788;28;20193;-59
2022/11/13 09:51:22;;;;;;;2.50;1.17;;;;;;;13.14;84.35;100720.84;5112496;28;20233;-64
2022/11/13 09:53:49;;;;;;;1.67;1.57;;;;;;;13.26;82.48;100721.94;5112201;28;20657;-59
2022/11/13 09:56:26;;;;;;;1.27;1.17;;;;;;;13.38;82.88;100717.81;5112386;28;20553;-59
2022/11/13 09:59:00;;;;;;;4.23;2.03;;;;;;;13.10;83.35;100709.13;5112067;28;20189;-64
2022/11/13 10:01:34;;;;;;;1.93;1.53;;;;;;;12.97;83.31;100710.72;5112308;28;20673;-64
2022/11/13 10:04:04;;;;;;;1.00;0.93;;;;;;;12.78;85.04;100709.19;5112059;28;20308;-59
2022/11/13 10:06:43;;;;;;;4.07;1.57;;;;;;;13.02;86.13;100711.28;5112158;28;20693;-65
2022/11/13 10:09:19;;;;;;;1.17;0.67;;;;;;;13.31;84.28;100702.78;5111812;28;20220;-59
2022/11/13 10:11:50;;;;;;;2.40;1.07;;;;;;;13.51;83.24;100698.22;5112110;28;20607;-59
2022/11/13 10:14:21;;;;;;;1.63;1.20;;;;;;;13.58;80.41;100694.38;5112063;28;20236;-64
2022/11/13 10:16:52;;;;;;;4.13;1.33;;;;;;;13.24;81.55;100709.16;5112081;28;20484;-59
2022/11/13 10:19:24;;;;;;;2.00;1.70;;;;;;;13.21;83.77;100693.94;5111822;28;20227;-59
2022/11/13 10:21:59;;;;;;;1.93;1.53;;;;;;;13.09;82.86;100698.03;5111662;28;20202;-59
2022/11/13 10:24:36;;;;;;;2.00;1.53;;;;;;;13.12;83.55;100686.75;5111979;28;20286;-64
2022/11/13 10:27:08;;;;;;;1.37;1.00;;;;;;;13.32;83.64;100688.19;5111723;28;20199;-59
2022/11/13 10:29:35;;;;;;;1.33;1.10;;;;;;;13.59;82.28;100680.63;5111305;28;20774;-64
2022/11/13 10:32:15;;;;;;;1.63;1.13;;;;;;;13.45;82.41;100672.91;5111523;28;20277;-59
2022/11/13 10:34:44;;;;;;;1.50;1.20;;;;;;;13.63;80.95;100679.50;5111490;28;20222;-57
2022/11/13 10:37:24;;;;;;;1.80;1.13;;;;;;;13.72;82.97;100681.53;5111759;28;20206;-58
2022/11/13 10:39:51;;;;;;;1.20;1.10;;;;;;;13.73;81.07;100675.47;5111582;28;20428;-58
2022/11/13 10:42:23;;;;;;;2.93;0.90;;;;;;;13.82;81.42;100672.34;5111367;28;20211;-64
2022/11/13 10:44:55;;;;;;;0.93;0.87;;;;;;;13.88;80.97;100660.06;5111125;28;20263;-57
2022/11/13 10:47:24;;;;;;;2.40;1.33;;;;;;;14.17;81.18;100661.66;5111245;28;20196;-57
2022/11/13 10:49:51;;;;;;;1.60;1.20;;;;;;;14.24;79.13;100668.06;5111198;28;20641;-65
2022/11/13 10:52:21;;;;;;;3.43;2.07;;;;;;;14.16;80.38;100669.47;5111008;28;20238;-64
2022/11/13 10:54:49;;;;;;;3.03;1.10;;;;;;;14.08;81.87;100661.38;5110653;28;20228;-58
2022/11/13 10:57:31;;;;;;;1.23;1.13;;;;;;;13.97;81.75;100662.06;5110601;28;20199;-57
2022/11/13 10:59:59;;;;;;;2.97;1.93;;;;;;;13.99;82.02;100660.19;5111302;28;20231;-58
2022/11/13 11:02:27;;;;;;;2.50;1.80;;;;;;;13.82;82.80;100650.97;5110974;28;20196;-58
2022/11/13 11:05:05;;;;;;;3.23;2.03;;;;;;;13.88;83.41;100644.63;5110868;28;20615;-65
2022/11/13 11:07:40;;;;;;;1.67;1.40;;;;;;;13.99;83.79;100648.19;5110831;28;20261;-58
2022/11/13 11:10:21;;;;;;;2.10;1.53;;;;;;;13.96;81.68;100643.25;5111354;28;20229;-57
2022/11/13 11:12:53;;;;;;;2.63;1.60;;;;;;;14.11;81.77;100641.47;5110799;28;20244;-58
2022/11/13 11:15:25;;;;;;;1.30;0.90;;;;;;;14.13;82.74;100644.75;5110984;27;20371;-58
2022/11/13 11:17:57;;;;;;;3.27;1.90;;;;;;;14.30;80.97;100650.59;5110907;28;20288;-58
2022/11/13 11:20:36;;;;;;;3.70;2.20;;;;;;;14.26;81.14;100635.34;5111375;28;20612;-58
2022/11/13 11:23:16;;;;;;;1.67;1.37;;;;;;;14.26;81.94;100640.50;5110838;28;20192;-65
2022/11/13 11:25:50;;;;;;;2.93;1.87;;;;;;;14.40;81.93;100636.25;5111291;28;20215;-64
2022/11/13 11:28:27;;;;;;;1.83;1.60;;;;;;;14.10;82.10;100638.97;5111075;28;20341;-57
2022/11/13 11:30:59;;;;;;;3.00;2.00;;;;;;;14.10;82.23;100633.84;5110655;28;20694;-58
2022/11/13 11:33:33;;;;;;;1.37;1.00;;;;;;;14.01;81.95;100636.03;5110994;28;20213;-58